PWSweather.com
Personal Weather Stations
Station Observations
KOHCLEVE171
Cleveland, OH

Cleveland, OH

Lat: 41.48646164, Lon: -81.46408081

Elevation: 1059

Station Type:

High Low Average
Temperature 28.9°F-1.7°C 21.6°F-5.8°C 25.0°F-3.9°C
Dew Point 20.5°F-6.4°C 15.1°F-9.4°C 17.5°F-8.1°C
Winds 4.0 mph 6.4 kmh Calm Calm 1.0 mph ESE1.6 kmh ESE
Wind Gusts 5.6 mph9.0 kmh -- 2.0 mph3.2 kmh
Humidity 79% 65% 73%
Pressure 30.48 in1032.2 mb 30.35 in1027.8 mb -
Precipitation 0.00 in0.0 mm - -
Hour Temp Dew Point Humidity Winds Wind Gusts Pressure Precip Precip Rate Daily Precip Total
12:04 AM 22.8°F-5.1°C 15.1°F-9.4°C 72% 1.6 mph N2.6 kmh N 2.0 mph3.2 kmh 30.37 in1028.4 mb 0.00 in0.0 mm 0.00 in0.0 mm 0.00 in0.0 mm
12:09 AM 22.8°F-5.1°C 15.1°F-9.4°C 72% 3.4 mph N5.5 kmh N 4.7 mph7.6 kmh 30.37 in1028.4 mb 0.00 in0.0 mm 0.00 in0.0 mm 0.00 in0.0 mm
12:14 AM 22.8°F-5.1°C 15.8°F-9.0°C 74% 3.1 mph N5.0 kmh N 4.7 mph7.6 kmh 30.37 in1028.4 mb 0.00 in0.0 mm 0.00 in0.0 mm 0.00 in0.0 mm
12:19 AM 22.8°F-5.1°C 15.8°F-9.0°C 74% 2.5 mph N4.0 kmh N 3.8 mph6.1 kmh 30.37 in1028.4 mb 0.00 in0.0 mm 0.00 in0.0 mm 0.00 in0.0 mm
12:24 AM 22.8°F-5.1°C 15.8°F-9.0°C 74% 2.0 mph N3.2 kmh N 2.9 mph4.7 kmh 30.37 in1028.4 mb 0.00 in0.0 mm 0.00 in0.0 mm 0.00 in0.0 mm
12:29 AM 22.8°F-5.1°C 15.8°F-9.0°C 74% 2.2 mph NE3.5 kmh NE 4.0 mph6.4 kmh 30.36 in1028.1 mb 0.00 in0.0 mm 0.00 in0.0 mm 0.00 in0.0 mm
12:34 AM 22.6°F-5.2°C 15.6°F-9.1°C 74% 2.7 mph N4.3 kmh N 4.7 mph7.6 kmh 30.36 in1028.1 mb 0.00 in0.0 mm 0.00 in0.0 mm 0.00 in0.0 mm
12:39 AM 22.6°F-5.2°C 16.0°F-8.9°C 75% 2.0 mph 3.2 kmh 3.4 mph5.5 kmh 30.36 in1028.1 mb 0.00 in0.0 mm 0.00 in0.0 mm 0.00 in0.0 mm
12:44 AM 22.8°F-5.1°C 16.2°F-8.8°C 75% 2.0 mph NNE3.2 kmh NNE 2.9 mph4.7 kmh 30.36 in1028.1 mb 0.00 in0.0 mm 0.00 in0.0 mm 0.00 in0.0 mm
12:49 AM 22.8°F-5.1°C 16.2°F-8.8°C 75% 1.8 mph NE2.9 kmh NE 3.1 mph5.0 kmh 30.36 in1028.1 mb 0.00 in0.0 mm 0.00 in0.0 mm 0.00 in0.0 mm
12:54 AM 23.0°F-5.0°C 16.5°F-8.6°C 76% 1.8 mph NE2.9 kmh NE 2.7 mph4.3 kmh 30.36 in1028.1 mb 0.00 in0.0 mm 0.00 in0.0 mm 0.00 in0.0 mm
01:04 AM 23.0°F-5.0°C 16.5°F-8.6°C 76% 2.2 mph NE3.5 kmh NE 3.6 mph5.8 kmh 30.36 in1028.1 mb 0.00 in0.0 mm 0.00 in0.0 mm 0.00 in0.0 mm
01:09 AM 23.0°F-5.0°C 16.5°F-8.6°C 76% 2.5 mph N4.0 kmh N 3.1 mph5.0 kmh 30.36 in1028.1 mb 0.00 in0.0 mm 0.00 in0.0 mm 0.00 in0.0 mm
01:14 AM 23.0°F-5.0°C 16.5°F-8.6°C 76% 2.2 mph N3.5 kmh N 3.4 mph5.5 kmh 30.36 in1028.1 mb 0.00 in0.0 mm 0.00 in0.0 mm 0.00 in0.0 mm
01:19 AM 23.0°F-5.0°C 16.5°F-8.6°C 76% 1.3 mph NE2.1 kmh NE 2.7 mph4.3 kmh 30.35 in1027.8 mb 0.00 in0.0 mm 0.00 in0.0 mm 0.00 in0.0 mm
01:24 AM 23.0°F-5.0°C 16.5°F-8.6°C 76% 1.6 mph NE2.6 kmh NE 2.5 mph4.0 kmh 30.35 in1027.8 mb 0.00 in0.0 mm 0.00 in0.0 mm 0.00 in0.0 mm
01:29 AM 23.2°F-4.9°C 16.7°F-8.5°C 76% 1.8 mph N2.9 kmh N 3.1 mph5.0 kmh 30.35 in1027.8 mb 0.00 in0.0 mm 0.00 in0.0 mm 0.00 in0.0 mm
01:34 AM 23.2°F-4.9°C 16.5°F-8.6°C 75% 1.3 mph NE2.1 kmh NE 1.8 mph2.9 kmh 30.36 in1028.1 mb 0.00 in0.0 mm 0.00 in0.0 mm 0.00 in0.0 mm
01:39 AM 23.2°F-4.9°C 16.5°F-8.6°C 75% 2.0 mph NE3.2 kmh NE 3.1 mph5.0 kmh 30.36 in1028.1 mb 0.00 in0.0 mm 0.00 in0.0 mm 0.00 in0.0 mm
01:44 AM 23.4°F-4.8°C 16.5°F-8.6°C 75% 3.1 mph N5.0 kmh N 4.3 mph6.9 kmh 30.36 in1028.1 mb 0.00 in0.0 mm 0.00 in0.0 mm 0.00 in0.0 mm
01:49 AM 23.2°F-4.9°C 16.5°F-8.6°C 75% 1.6 mph NNE2.6 kmh NNE 2.2 mph3.5 kmh 30.36 in1028.1 mb 0.00 in0.0 mm 0.00 in0.0 mm 0.00 in0.0 mm
01:54 AM 23.2°F-4.9°C 16.5°F-8.6°C 75% 2.2 mph N3.5 kmh N 2.9 mph4.7 kmh 30.36 in1028.1 mb 0.00 in0.0 mm 0.00 in0.0 mm 0.00 in0.0 mm
01:59 AM 23.2°F-4.9°C 16.5°F-8.6°C 75% 2.9 mph N4.7 kmh N 4.5 mph7.2 kmh 30.36 in1028.1 mb 0.00 in0.0 mm 0.00 in0.0 mm 0.00 in0.0 mm
02:04 AM 23.2°F-4.9°C 16.2°F-8.8°C 74% 2.7 mph N4.3 kmh N 4.5 mph7.2 kmh 30.36 in1028.1 mb 0.00 in0.0 mm 0.00 in0.0 mm 0.00 in0.0 mm
02:09 AM 23.2°F-4.9°C 16.5°F-8.6°C 75% 2.0 mph N3.2 kmh N 3.8 mph6.1 kmh 30.36 in1028.1 mb 0.00 in0.0 mm 0.00 in0.0 mm 0.00 in0.0 mm
02:14 AM 23.2°F-4.9°C 16.5°F-8.6°C 75% 2.5 mph N4.0 kmh N 4.5 mph7.2 kmh 30.36 in1028.1 mb 0.00 in0.0 mm 0.00 in0.0 mm 0.00 in0.0 mm
02:19 AM 23.2°F-4.9°C 16.5°F-8.6°C 75% 1.8 mph NE2.9 kmh NE 2.7 mph4.3 kmh 30.36 in1028.1 mb 0.00 in0.0 mm 0.00 in0.0 mm 0.00 in0.0 mm
02:24 AM 23.2°F-4.9°C 16.5°F-8.6°C 75% 1.8 mph N2.9 kmh N 2.5 mph4.0 kmh 30.36 in1028.1 mb 0.00 in0.0 mm 0.00 in0.0 mm 0.00 in0.0 mm
02:29 AM 23.2°F-4.9°C 16.5°F-8.6°C 75% 1.8 mph NNE2.9 kmh NNE 2.7 mph4.3 kmh 30.36 in1028.1 mb 0.00 in0.0 mm 0.00 in0.0 mm 0.00 in0.0 mm
02:34 AM 23.2°F-4.9°C 16.5°F-8.6°C 75% 2.2 mph N3.5 kmh N 3.1 mph5.0 kmh 30.36 in1028.1 mb 0.00 in0.0 mm 0.00 in0.0 mm 0.00 in0.0 mm
02:39 AM 23.4°F-4.8°C 16.5°F-8.6°C 75% 1.6 mph NNE2.6 kmh NNE 2.2 mph3.5 kmh 30.36 in1028.1 mb 0.00 in0.0 mm 0.00 in0.0 mm 0.00 in0.0 mm
02:44 AM 23.4°F-4.8°C 16.5°F-8.6°C 75% 2.0 mph N3.2 kmh N 4.3 mph6.9 kmh 30.36 in1028.1 mb 0.00 in0.0 mm 0.00 in0.0 mm 0.00 in0.0 mm
02:49 AM 23.2°F-4.9°C 16.2°F-8.8°C 74% 2.7 mph NNE4.3 kmh NNE 3.6 mph5.8 kmh 30.37 in1028.4 mb 0.00 in0.0 mm 0.00 in0.0 mm 0.00 in0.0 mm
02:54 AM 23.2°F-4.9°C 16.2°F-8.8°C 74% 1.6 mph NNE2.6 kmh NNE 2.7 mph4.3 kmh 30.36 in1028.1 mb 0.00 in0.0 mm 0.00 in0.0 mm 0.00 in0.0 mm
02:59 AM 23.2°F-4.9°C 16.2°F-8.8°C 74% 2.7 mph NNE4.3 kmh NNE 5.1 mph8.2 kmh 30.37 in1028.4 mb 0.00 in0.0 mm 0.00 in0.0 mm 0.00 in0.0 mm
03:04 AM 23.2°F-4.9°C 16.2°F-8.8°C 74% 2.5 mph N4.0 kmh N 4.0 mph6.4 kmh 30.37 in1028.4 mb 0.00 in0.0 mm 0.00 in0.0 mm 0.00 in0.0 mm
03:09 AM 23.2°F-4.9°C 16.2°F-8.8°C 74% 2.7 mph N4.3 kmh N 4.7 mph7.6 kmh 30.37 in1028.4 mb 0.00 in0.0 mm 0.00 in0.0 mm 0.00 in0.0 mm
03:14 AM 23.0°F-5.0°C 16.0°F-8.9°C 74% 1.1 mph N1.8 kmh N 1.6 mph2.6 kmh 30.37 in1028.4 mb 0.00 in0.0 mm 0.00 in0.0 mm 0.00 in0.0 mm
03:19 AM 23.0°F-5.0°C 16.0°F-8.9°C 74% 1.8 mph NNE2.9 kmh NNE 2.2 mph3.5 kmh 30.37 in1028.4 mb 0.00 in0.0 mm 0.00 in0.0 mm 0.00 in0.0 mm
03:24 AM 23.0°F-5.0°C 16.0°F-8.9°C 74% 1.8 mph NNW2.9 kmh NNW 3.4 mph5.5 kmh 30.37 in1028.4 mb 0.00 in0.0 mm 0.00 in0.0 mm 0.00 in0.0 mm
03:29 AM 23.2°F-4.9°C 16.5°F-8.6°C 75% 2.0 mph NE3.2 kmh NE 3.6 mph5.8 kmh 30.37 in1028.4 mb 0.00 in0.0 mm 0.00 in0.0 mm 0.00 in0.0 mm
03:34 AM 23.2°F-4.9°C 16.5°F-8.6°C 75% 2.9 mph NE4.7 kmh NE 5.4 mph8.7 kmh 30.38 in1028.8 mb 0.00 in0.0 mm 0.00 in0.0 mm 0.00 in0.0 mm
03:39 AM 23.0°F-5.0°C 16.0°F-8.9°C 74% 3.4 mph N5.5 kmh N 5.6 mph9.0 kmh 30.37 in1028.4 mb 0.00 in0.0 mm 0.00 in0.0 mm 0.00 in0.0 mm
03:44 AM 23.0°F-5.0°C 16.0°F-8.9°C 74% 2.5 mph NE4.0 kmh NE 3.8 mph6.1 kmh 30.38 in1028.8 mb 0.00 in0.0 mm 0.00 in0.0 mm 0.00 in0.0 mm
03:49 AM 23.0°F-5.0°C 15.3°F-9.3°C 72% 2.0 mph N3.2 kmh N 4.0 mph6.4 kmh 30.38 in1028.8 mb 0.00 in0.0 mm 0.00 in0.0 mm 0.00 in0.0 mm
03:54 AM 22.8°F-5.1°C 15.8°F-9.0°C 74% 2.5 mph N4.0 kmh N 4.0 mph6.4 kmh 30.38 in1028.8 mb 0.00 in0.0 mm 0.00 in0.0 mm 0.00 in0.0 mm
03:59 AM 23.0°F-5.0°C 15.3°F-9.3°C 72% 2.2 mph N3.5 kmh N 4.5 mph7.2 kmh 30.38 in1028.8 mb 0.00 in0.0 mm 0.00 in0.0 mm 0.00 in0.0 mm
04:04 AM 22.8°F-5.1°C 15.1°F-9.4°C 72% 1.6 mph N2.6 kmh N 2.9 mph4.7 kmh 30.38 in1028.8 mb 0.00 in0.0 mm 0.00 in0.0 mm 0.00 in0.0 mm
04:09 AM 22.8°F-5.1°C 15.1°F-9.4°C 72% 1.6 mph NNE2.6 kmh NNE 2.2 mph3.5 kmh 30.37 in1028.4 mb 0.00 in0.0 mm 0.00 in0.0 mm 0.00 in0.0 mm
04:14 AM 23.0°F-5.0°C 16.0°F-8.9°C 74% 2.0 mph NE3.2 kmh NE 3.4 mph5.5 kmh 30.37 in1028.4 mb 0.00 in0.0 mm 0.00 in0.0 mm 0.00 in0.0 mm
04:19 AM 23.0°F-5.0°C 16.0°F-8.9°C 74% 1.1 mph NE1.8 kmh NE 2.2 mph3.5 kmh 30.37 in1028.4 mb 0.00 in0.0 mm 0.00 in0.0 mm 0.00 in0.0 mm
04:24 AM 23.0°F-5.0°C 16.0°F-8.9°C 74% 2.5 mph N4.0 kmh N 3.1 mph5.0 kmh 30.37 in1028.4 mb 0.00 in0.0 mm 0.00 in0.0 mm 0.00 in0.0 mm
04:29 AM 23.0°F-5.0°C 16.0°F-8.9°C 74% 1.8 mph NNE2.9 kmh NNE 2.0 mph3.2 kmh 30.37 in1028.4 mb 0.00 in0.0 mm 0.00 in0.0 mm 0.00 in0.0 mm
04:34 AM 23.0°F-5.0°C 16.3°F-8.7°C 75% 1.1 mph NE1.8 kmh NE 1.6 mph2.6 kmh 30.37 in1028.4 mb 0.00 in0.0 mm 0.00 in0.0 mm 0.00 in0.0 mm
04:39 AM 23.0°F-5.0°C 16.0°F-8.9°C 74% 1.3 mph NE2.1 kmh NE 1.8 mph2.9 kmh 30.37 in1028.4 mb 0.00 in0.0 mm 0.00 in0.0 mm 0.00 in0.0 mm
04:44 AM 22.8°F-5.1°C 15.8°F-9.0°C 74% 1.3 mph ENE2.1 kmh ENE 2.5 mph4.0 kmh 30.37 in1028.4 mb 0.00 in0.0 mm 0.00 in0.0 mm 0.00 in0.0 mm
04:49 AM 23.0°F-5.0°C 16.0°F-8.9°C 74% 1.1 mph N1.8 kmh N 1.6 mph2.6 kmh 30.37 in1028.4 mb 0.00 in0.0 mm 0.00 in0.0 mm 0.00 in0.0 mm
04:54 AM 23.0°F-5.0°C 16.0°F-8.9°C 74% 0.9 mph SE1.4 kmh SE 2.2 mph3.5 kmh 30.37 in1028.4 mb 0.00 in0.0 mm 0.00 in0.0 mm 0.00 in0.0 mm
04:59 AM 22.8°F-5.1°C 15.8°F-9.0°C 74% 1.1 mph ENE1.8 kmh ENE 2.0 mph3.2 kmh 30.37 in1028.4 mb 0.00 in0.0 mm 0.00 in0.0 mm 0.00 in0.0 mm
05:04 AM 22.6°F-5.2°C 15.6°F-9.1°C 74% 0.7 mph NE1.1 kmh NE 1.3 mph2.1 kmh 30.37 in1028.4 mb 0.00 in0.0 mm 0.00 in0.0 mm 0.00 in0.0 mm
05:09 AM 22.5°F-5.3°C 15.8°F-9.0°C 75% 1.3 mph N2.1 kmh N 1.8 mph2.9 kmh 30.37 in1028.4 mb 0.00 in0.0 mm 0.00 in0.0 mm 0.00 in0.0 mm
05:14 AM 22.3°F-5.4°C 15.6°F-9.1°C 75% 2.2 mph N3.5 kmh N 3.6 mph5.8 kmh 30.37 in1028.4 mb 0.00 in0.0 mm 0.00 in0.0 mm 0.00 in0.0 mm
05:19 AM 22.1°F-5.5°C 15.4°F-9.2°C 75% 1.1 mph NNE1.8 kmh NNE 1.6 mph2.6 kmh 30.37 in1028.4 mb 0.00 in0.0 mm 0.00 in0.0 mm 0.00 in0.0 mm
05:24 AM 21.7°F-5.7°C 15.1°F-9.4°C 75% 1.1 mph N1.8 kmh N 1.8 mph2.9 kmh 30.37 in1028.4 mb 0.00 in0.0 mm 0.00 in0.0 mm 0.00 in0.0 mm
05:29 AM 21.7°F-5.7°C 15.3°F-9.3°C 76% 0.2 mph NE0.3 kmh NE 0.9 mph1.4 kmh 30.37 in1028.4 mb 0.00 in0.0 mm 0.00 in0.0 mm 0.00 in0.0 mm
05:34 AM 21.6°F-5.8°C 15.1°F-9.4°C 76% 1.1 mph N1.8 kmh N 1.3 mph2.1 kmh 30.37 in1028.4 mb 0.00 in0.0 mm 0.00 in0.0 mm 0.00 in0.0 mm
05:39 AM 21.6°F-5.8°C 15.1°F-9.4°C 76% 1.1 mph ENE1.8 kmh ENE 1.6 mph2.6 kmh 30.37 in1028.4 mb 0.00 in0.0 mm 0.00 in0.0 mm 0.00 in0.0 mm
05:44 AM 21.6°F-5.8°C 15.1°F-9.4°C 76% 0.9 mph NNE1.4 kmh NNE 1.6 mph2.6 kmh 30.37 in1028.4 mb 0.00 in0.0 mm 0.00 in0.0 mm 0.00 in0.0 mm
05:49 AM 21.6°F-5.8°C 15.1°F-9.4°C 76% 0.7 mph E1.1 kmh E 1.3 mph2.1 kmh 30.37 in1028.4 mb 0.00 in0.0 mm 0.00 in0.0 mm 0.00 in0.0 mm
05:54 AM 21.7°F-5.7°C 15.6°F-9.1°C 77% 0.7 mph ENE1.1 kmh ENE 1.1 mph1.8 kmh 30.37 in1028.4 mb 0.00 in0.0 mm 0.00 in0.0 mm 0.00 in0.0 mm
05:59 AM 21.9°F-5.6°C 15.8°F-9.0°C 77% 0.7 mph NE1.1 kmh NE 1.1 mph1.8 kmh 30.37 in1028.4 mb 0.00 in0.0 mm 0.00 in0.0 mm 0.00 in0.0 mm
06:04 AM 21.9°F-5.6°C 15.8°F-9.0°C 77% 0.4 mph ENE0.6 kmh ENE 1.1 mph1.8 kmh 30.37 in1028.4 mb 0.00 in0.0 mm 0.00 in0.0 mm 0.00 in0.0 mm
06:09 AM 22.1°F-5.5°C 16.0°F-8.9°C 77% Calm Calm -- 30.37 in1028.4 mb 0.00 in0.0 mm 0.00 in0.0 mm 0.00 in0.0 mm
06:14 AM 22.1°F-5.5°C 16.5°F-8.6°C 79% 0.4 mph NE0.6 kmh NE 1.1 mph1.8 kmh 30.37 in1028.4 mb 0.00 in0.0 mm 0.00 in0.0 mm 0.00 in0.0 mm
06:19 AM 21.9°F-5.6°C 15.8°F-9.0°C 77% 0.7 mph N1.1 kmh N 1.1 mph1.8 kmh 30.38 in1028.8 mb 0.00 in0.0 mm 0.00 in0.0 mm 0.00 in0.0 mm
06:24 AM 21.9°F-5.6°C 16.3°F-8.7°C 79% 0.9 mph NNE1.4 kmh NNE 1.1 mph1.8 kmh 30.39 in1029.1 mb 0.00 in0.0 mm 0.00 in0.0 mm 0.00 in0.0 mm
06:29 AM 21.9°F-5.6°C 16.3°F-8.7°C 79% 0.7 mph E1.1 kmh E 2.0 mph3.2 kmh 30.38 in1028.8 mb 0.00 in0.0 mm 0.00 in0.0 mm 0.00 in0.0 mm
06:34 AM 21.9°F-5.6°C 16.3°F-8.7°C 79% 0.4 mph E0.6 kmh E 1.3 mph2.1 kmh 30.39 in1029.1 mb 0.00 in0.0 mm 0.00 in0.0 mm 0.00 in0.0 mm
06:39 AM 21.7°F-5.7°C 16.2°F-8.8°C 79% 0.7 mph NNE1.1 kmh NNE 1.1 mph1.8 kmh 30.39 in1029.1 mb 0.00 in0.0 mm 0.00 in0.0 mm 0.00 in0.0 mm
06:44 AM 21.9°F-5.6°C 16.3°F-8.7°C 79% 0.7 mph NE1.1 kmh NE 1.1 mph1.8 kmh 30.39 in1029.1 mb 0.00 in0.0 mm 0.00 in0.0 mm 0.00 in0.0 mm
06:49 AM 21.9°F-5.6°C 16.3°F-8.7°C 79% 0.7 mph E1.1 kmh E 1.8 mph2.9 kmh 30.39 in1029.1 mb 0.00 in0.0 mm 0.00 in0.0 mm 0.00 in0.0 mm
06:54 AM 21.9°F-5.6°C 16.3°F-8.7°C 79% 0.9 mph N1.4 kmh N 1.3 mph2.1 kmh 30.40 in1029.5 mb 0.00 in0.0 mm 0.00 in0.0 mm 0.00 in0.0 mm
06:59 AM 21.9°F-5.6°C 15.8°F-9.0°C 77% 0.2 mph ENE0.3 kmh ENE 1.8 mph2.9 kmh 30.40 in1029.5 mb 0.00 in0.0 mm 0.00 in0.0 mm 0.00 in0.0 mm
07:04 AM 21.9°F-5.6°C 15.8°F-9.0°C 77% 1.1 mph N1.8 kmh N 2.0 mph3.2 kmh 30.40 in1029.5 mb 0.00 in0.0 mm 0.00 in0.0 mm 0.00 in0.0 mm
07:09 AM 21.9°F-5.6°C 15.8°F-9.0°C 77% 1.6 mph N2.6 kmh N 2.2 mph3.5 kmh 30.40 in1029.5 mb 0.00 in0.0 mm 0.00 in0.0 mm 0.00 in0.0 mm
07:14 AM 22.1°F-5.5°C 15.6°F-9.1°C 76% 1.6 mph N2.6 kmh N 2.5 mph4.0 kmh 30.40 in1029.5 mb 0.00 in0.0 mm 0.00 in0.0 mm 0.00 in0.0 mm
07:19 AM 22.1°F-5.5°C 15.6°F-9.1°C 76% 1.1 mph NE1.8 kmh NE 1.8 mph2.9 kmh 30.40 in1029.5 mb 0.00 in0.0 mm 0.00 in0.0 mm 0.00 in0.0 mm
07:24 AM 22.1°F-5.5°C 15.6°F-9.1°C 76% 1.1 mph N1.8 kmh N 1.6 mph2.6 kmh 30.41 in1029.8 mb 0.00 in0.0 mm 0.00 in0.0 mm 0.00 in0.0 mm
07:29 AM 22.3°F-5.4°C 15.8°F-9.0°C 76% 2.0 mph NNE3.2 kmh NNE 3.6 mph5.8 kmh 30.40 in1029.5 mb 0.00 in0.0 mm 0.00 in0.0 mm 0.00 in0.0 mm
07:34 AM 22.3°F-5.4°C 15.6°F-9.1°C 75% 1.6 mph NNE2.6 kmh NNE 2.2 mph3.5 kmh 30.41 in1029.8 mb 0.00 in0.0 mm 0.00 in0.0 mm 0.00 in0.0 mm
07:39 AM 22.3°F-5.4°C 15.8°F-9.0°C 76% 0.9 mph NNE1.4 kmh NNE 1.3 mph2.1 kmh 30.41 in1029.8 mb 0.00 in0.0 mm 0.00 in0.0 mm 0.00 in0.0 mm
07:44 AM 22.3°F-5.4°C 15.8°F-9.0°C 76% 1.1 mph NNE1.8 kmh NNE 3.4 mph5.5 kmh 30.41 in1029.8 mb 0.00 in0.0 mm 0.00 in0.0 mm 0.00 in0.0 mm
07:49 AM 22.1°F-5.5°C 15.6°F-9.1°C 76% 0.2 mph E0.3 kmh E 1.3 mph2.1 kmh 30.41 in1029.8 mb 0.00 in0.0 mm 0.00 in0.0 mm 0.00 in0.0 mm
07:54 AM 22.3°F-5.4°C 15.8°F-9.0°C 76% 1.1 mph NNE1.8 kmh NNE 1.8 mph2.9 kmh 30.41 in1029.8 mb 0.00 in0.0 mm 0.00 in0.0 mm 0.00 in0.0 mm
07:59 AM 22.3°F-5.4°C 15.8°F-9.0°C 76% 0.2 mph NE0.3 kmh NE 1.1 mph1.8 kmh 30.41 in1029.8 mb 0.00 in0.0 mm 0.00 in0.0 mm 0.00 in0.0 mm
08:04 AM 22.3°F-5.4°C 15.8°F-9.0°C 76% 0.7 mph E1.1 kmh E 4.7 mph7.6 kmh 30.42 in1030.1 mb 0.00 in0.0 mm 0.00 in0.0 mm 0.00 in0.0 mm
08:09 AM 22.5°F-5.3°C 16.0°F-8.9°C 76% 0.7 mph NW1.1 kmh NW 2.2 mph3.5 kmh 30.41 in1029.8 mb 0.00 in0.0 mm 0.00 in0.0 mm 0.00 in0.0 mm
08:14 AM 22.6°F-5.2°C 16.2°F-8.8°C 76% 1.1 mph E1.8 kmh E 1.8 mph2.9 kmh 30.42 in1030.1 mb 0.00 in0.0 mm 0.00 in0.0 mm 0.00 in0.0 mm
08:19 AM 22.6°F-5.2°C 16.2°F-8.8°C 76% 0.9 mph NE1.4 kmh NE 1.8 mph2.9 kmh 30.42 in1030.1 mb 0.00 in0.0 mm 0.00 in0.0 mm 0.00 in0.0 mm
08:24 AM 22.8°F-5.1°C 16.2°F-8.8°C 75% 0.7 mph N1.1 kmh N 1.8 mph2.9 kmh 30.42 in1030.1 mb 0.00 in0.0 mm 0.00 in0.0 mm 0.00 in0.0 mm
08:29 AM 22.8°F-5.1°C 16.3°F-8.7°C 76% 0.7 mph E1.1 kmh E 2.5 mph4.0 kmh 30.42 in1030.1 mb 0.00 in0.0 mm 0.00 in0.0 mm 0.00 in0.0 mm
08:34 AM 22.8°F-5.1°C 16.3°F-8.7°C 76% 0.9 mph NE1.4 kmh NE 1.3 mph2.1 kmh 30.42 in1030.1 mb 0.00 in0.0 mm 0.00 in0.0 mm 0.00 in0.0 mm
08:39 AM 23.0°F-5.0°C 16.3°F-8.7°C 75% 1.3 mph NE2.1 kmh NE 2.0 mph3.2 kmh 30.42 in1030.1 mb 0.00 in0.0 mm 0.00 in0.0 mm 0.00 in0.0 mm
08:44 AM 23.0°F-5.0°C 16.3°F-8.7°C 75% 2.0 mph N3.2 kmh N 2.2 mph3.5 kmh 30.42 in1030.1 mb 0.00 in0.0 mm 0.00 in0.0 mm 0.00 in0.0 mm
08:49 AM 23.0°F-5.0°C 16.3°F-8.7°C 75% 1.6 mph NE2.6 kmh NE 2.2 mph3.5 kmh 30.42 in1030.1 mb 0.00 in0.0 mm 0.00 in0.0 mm 0.00 in0.0 mm
08:54 AM 23.2°F-4.9°C 16.7°F-8.5°C 76% 0.9 mph NE1.4 kmh NE 1.6 mph2.6 kmh 30.43 in1030.5 mb 0.00 in0.0 mm 0.00 in0.0 mm 0.00 in0.0 mm
08:59 AM 23.4°F-4.8°C 16.5°F-8.6°C 75% 0.4 mph N0.6 kmh N 1.1 mph1.8 kmh 30.43 in1030.5 mb 0.00 in0.0 mm 0.00 in0.0 mm 0.00 in0.0 mm
09:04 AM 23.4°F-4.8°C 16.5°F-8.6°C 75% 1.6 mph NNE2.6 kmh NNE 2.0 mph3.2 kmh 30.43 in1030.5 mb 0.00 in0.0 mm 0.00 in0.0 mm 0.00 in0.0 mm
09:09 AM 23.4°F-4.8°C 16.5°F-8.6°C 75% 1.6 mph NE2.6 kmh NE 2.2 mph3.5 kmh 30.44 in1030.8 mb 0.00 in0.0 mm 0.00 in0.0 mm 0.00 in0.0 mm
09:14 AM 23.4°F-4.8°C 16.5°F-8.6°C 75% 1.8 mph N2.9 kmh N 2.5 mph4.0 kmh 30.44 in1030.8 mb 0.00 in0.0 mm 0.00 in0.0 mm 0.00 in0.0 mm
09:19 AM 23.4°F-4.8°C 16.5°F-8.6°C 75% 2.2 mph N3.5 kmh N 3.1 mph5.0 kmh 30.44 in1030.8 mb 0.00 in0.0 mm 0.00 in0.0 mm 0.00 in0.0 mm
09:24 AM 23.4°F-4.8°C 16.3°F-8.7°C 74% 1.3 mph NNE2.1 kmh NNE 1.8 mph2.9 kmh 30.45 in1031.2 mb 0.00 in0.0 mm 0.00 in0.0 mm 0.00 in0.0 mm
09:29 AM 23.4°F-4.8°C 15.6°F-9.1°C 72% 2.2 mph N3.5 kmh N 3.6 mph5.8 kmh 30.46 in1031.5 mb 0.00 in0.0 mm 0.00 in0.0 mm 0.00 in0.0 mm
09:34 AM 23.4°F-4.8°C 15.6°F-9.1°C 72% 1.8 mph N2.9 kmh N 2.7 mph4.3 kmh 30.46 in1031.5 mb 0.00 in0.0 mm 0.00 in0.0 mm 0.00 in0.0 mm
09:39 AM 23.5°F-4.7°C 16.5°F-8.6°C 74% 1.1 mph N1.8 kmh N 1.8 mph2.9 kmh 30.46 in1031.5 mb 0.00 in0.0 mm 0.00 in0.0 mm 0.00 in0.0 mm
09:44 AM 23.5°F-4.7°C 16.5°F-8.6°C 74% 2.0 mph N3.2 kmh N 2.9 mph4.7 kmh 30.46 in1031.5 mb 0.00 in0.0 mm 0.00 in0.0 mm 0.00 in0.0 mm
09:49 AM 23.5°F-4.7°C 15.8°F-9.0°C 72% 1.8 mph N2.9 kmh N 3.6 mph5.8 kmh 30.47 in1031.8 mb 0.00 in0.0 mm 0.00 in0.0 mm 0.00 in0.0 mm
09:54 AM 23.7°F-4.6°C 16.7°F-8.5°C 74% 1.3 mph NNE2.1 kmh NNE 2.0 mph3.2 kmh 30.47 in1031.8 mb 0.00 in0.0 mm 0.00 in0.0 mm 0.00 in0.0 mm
09:59 AM 23.9°F-4.5°C 16.9°F-8.4°C 74% 1.6 mph NNE2.6 kmh NNE 2.0 mph3.2 kmh 30.47 in1031.8 mb 0.00 in0.0 mm 0.00 in0.0 mm 0.00 in0.0 mm
10:04 AM 23.9°F-4.5°C 15.8°F-9.0°C 71% 2.5 mph N4.0 kmh N 4.0 mph6.4 kmh 30.47 in1031.8 mb 0.00 in0.0 mm 0.00 in0.0 mm 0.00 in0.0 mm
10:09 AM 23.9°F-4.5°C 15.8°F-9.0°C 71% 1.6 mph N2.6 kmh N 2.0 mph3.2 kmh 30.47 in1031.8 mb 0.00 in0.0 mm 0.00 in0.0 mm 0.00 in0.0 mm
10:14 AM 23.9°F-4.5°C 15.8°F-9.0°C 71% 2.0 mph NNE3.2 kmh NNE 3.4 mph5.5 kmh 30.47 in1031.8 mb 0.00 in0.0 mm 0.00 in0.0 mm 0.00 in0.0 mm
10:19 AM 24.1°F-4.4°C 16.0°F-8.9°C 71% 0.4 mph N0.6 kmh N 1.1 mph1.8 kmh 30.47 in1031.8 mb 0.00 in0.0 mm 0.00 in0.0 mm 0.00 in0.0 mm
10:24 AM 24.4°F-4.2°C 16.7°F-8.5°C 72% 1.6 mph N2.6 kmh N 2.5 mph4.0 kmh 30.47 in1031.8 mb 0.00 in0.0 mm 0.00 in0.0 mm 0.00 in0.0 mm
10:29 AM 24.4°F-4.2°C 16.7°F-8.5°C 72% 2.0 mph N3.2 kmh N 3.4 mph5.5 kmh 30.48 in1032.2 mb 0.00 in0.0 mm 0.00 in0.0 mm 0.00 in0.0 mm
10:34 AM 24.4°F-4.2°C 16.7°F-8.5°C 72% 0.9 mph N1.4 kmh N 1.6 mph2.6 kmh 30.48 in1032.2 mb 0.00 in0.0 mm 0.00 in0.0 mm 0.00 in0.0 mm
10:38 AM 24.6°F-4.1°C 16.9°F-8.4°C 72% 0.7 mph N1.1 kmh N 2.2 mph3.5 kmh 30.48 in1032.2 mb 0.00 in0.0 mm 0.00 in0.0 mm 0.00 in0.0 mm
10:44 AM 24.8°F-4.0°C 17.1°F-8.3°C 72% 1.1 mph NNW1.8 kmh NNW 2.5 mph4.0 kmh 30.48 in1032.2 mb 0.00 in0.0 mm 0.00 in0.0 mm 0.00 in0.0 mm
10:49 AM 24.8°F-4.0°C 16.7°F-8.5°C 71% 1.8 mph NNW2.9 kmh NNW 4.7 mph7.6 kmh 30.48 in1032.2 mb 0.00 in0.0 mm 0.00 in0.0 mm 0.00 in0.0 mm
10:54 AM 24.8°F-4.0°C 17.1°F-8.3°C 72% 1.8 mph NE2.9 kmh NE 2.2 mph3.5 kmh 30.48 in1032.2 mb 0.00 in0.0 mm 0.00 in0.0 mm 0.00 in0.0 mm
10:59 AM 24.8°F-4.0°C 16.7°F-8.5°C 71% 2.7 mph N4.3 kmh N 4.3 mph6.9 kmh 30.48 in1032.2 mb 0.00 in0.0 mm 0.00 in0.0 mm 0.00 in0.0 mm
11:04 AM 25.2°F-3.8°C 17.4°F-8.1°C 72% 0.9 mph W1.4 kmh W 2.7 mph4.3 kmh 30.48 in1032.2 mb 0.00 in0.0 mm 0.00 in0.0 mm 0.00 in0.0 mm
11:09 AM 25.3°F-3.7°C 17.2°F-8.2°C 71% 1.8 mph NNE2.9 kmh NNE 2.7 mph4.3 kmh 30.48 in1032.2 mb 0.00 in0.0 mm 0.00 in0.0 mm 0.00 in0.0 mm
11:14 AM 25.2°F-3.8°C 17.1°F-8.3°C 71% 1.1 mph NNW1.8 kmh NNW 2.5 mph4.0 kmh 30.48 in1032.2 mb 0.00 in0.0 mm 0.00 in0.0 mm 0.00 in0.0 mm
11:19 AM 25.2°F-3.8°C 16.7°F-8.5°C 70% 1.8 mph N2.9 kmh N 3.1 mph5.0 kmh 30.48 in1032.2 mb 0.00 in0.0 mm 0.00 in0.0 mm 0.00 in0.0 mm
11:24 AM 25.3°F-3.7°C 17.2°F-8.2°C 71% Calm Calm 0.4 mph0.6 kmh 30.48 in1032.2 mb 0.00 in0.0 mm 0.00 in0.0 mm 0.00 in0.0 mm
11:29 AM 25.5°F-3.6°C 17.4°F-8.1°C 71% 1.1 mph WSW1.8 kmh WSW 2.0 mph3.2 kmh 30.48 in1032.2 mb 0.00 in0.0 mm 0.00 in0.0 mm 0.00 in0.0 mm
11:34 AM 25.5°F-3.6°C 17.1°F-8.3°C 70% 0.4 mph N0.6 kmh N 1.8 mph2.9 kmh 30.48 in1032.2 mb 0.00 in0.0 mm 0.00 in0.0 mm 0.00 in0.0 mm
11:39 AM 25.7°F-3.5°C 17.2°F-8.2°C 70% 2.2 mph NNE3.5 kmh NNE 3.1 mph5.0 kmh 30.48 in1032.2 mb 0.00 in0.0 mm 0.00 in0.0 mm 0.00 in0.0 mm
11:44 AM 25.7°F-3.5°C 17.2°F-8.2°C 70% 0.7 mph NW1.1 kmh NW 2.2 mph3.5 kmh 30.47 in1031.8 mb 0.00 in0.0 mm 0.00 in0.0 mm 0.00 in0.0 mm
11:49 AM 25.9°F-3.4°C 17.1°F-8.3°C 69% 3.1 mph N5.0 kmh N 4.3 mph6.9 kmh 30.47 in1031.8 mb 0.00 in0.0 mm 0.00 in0.0 mm 0.00 in0.0 mm
11:54 AM 25.9°F-3.4°C 17.4°F-8.1°C 70% 1.8 mph WSW2.9 kmh WSW 2.9 mph4.7 kmh 30.47 in1031.8 mb 0.00 in0.0 mm 0.00 in0.0 mm 0.00 in0.0 mm
11:59 AM 26.2°F-3.2°C 17.8°F-7.9°C 70% 0.2 mph NE0.3 kmh NE 2.2 mph3.5 kmh 30.47 in1031.8 mb 0.00 in0.0 mm 0.00 in0.0 mm 0.00 in0.0 mm
12:04 PM 26.2°F-3.2°C 17.8°F-7.9°C 70% 0.9 mph N1.4 kmh N 1.8 mph2.9 kmh 30.47 in1031.8 mb 0.00 in0.0 mm 0.00 in0.0 mm 0.00 in0.0 mm
12:09 PM 26.2°F-3.2°C 17.8°F-7.9°C 70% 0.7 mph NE1.1 kmh NE 1.6 mph2.6 kmh 30.47 in1031.8 mb 0.00 in0.0 mm 0.00 in0.0 mm 0.00 in0.0 mm
12:14 PM 26.2°F-3.2°C 17.8°F-7.9°C 70% 0.9 mph NE1.4 kmh NE 1.8 mph2.9 kmh 30.47 in1031.8 mb 0.00 in0.0 mm 0.00 in0.0 mm 0.00 in0.0 mm
12:19 PM 26.4°F-3.1°C 18.3°F-7.6°C 71% 1.1 mph SSE1.8 kmh SSE 2.0 mph3.2 kmh 30.47 in1031.8 mb 0.00 in0.0 mm 0.00 in0.0 mm 0.00 in0.0 mm
12:24 PM 26.2°F-3.2°C 17.4°F-8.1°C 69% 1.1 mph N1.8 kmh N 2.2 mph3.5 kmh 30.47 in1031.8 mb 0.00 in0.0 mm 0.00 in0.0 mm 0.00 in0.0 mm
12:29 PM 26.4°F-3.1°C 18.3°F-7.6°C 71% 1.6 mph W2.6 kmh W 2.9 mph4.7 kmh 30.47 in1031.8 mb 0.00 in0.0 mm 0.00 in0.0 mm 0.00 in0.0 mm
12:34 PM 26.4°F-3.1°C 18.3°F-7.6°C 71% 2.0 mph WSW3.2 kmh WSW 3.4 mph5.5 kmh 30.47 in1031.8 mb 0.00 in0.0 mm 0.00 in0.0 mm 0.00 in0.0 mm
12:39 PM 26.2°F-3.2°C 17.4°F-8.1°C 69% 1.8 mph NNE2.9 kmh NNE 2.5 mph4.0 kmh 30.47 in1031.8 mb 0.00 in0.0 mm 0.00 in0.0 mm 0.00 in0.0 mm
12:44 PM 26.4°F-3.1°C 18.0°F-7.8°C 70% 2.2 mph N3.5 kmh N 3.1 mph5.0 kmh 30.47 in1031.8 mb 0.00 in0.0 mm 0.00 in0.0 mm 0.00 in0.0 mm
12:49 PM 26.6°F-3.0°C 18.5°F-7.5°C 71% 0.7 mph ESE1.1 kmh ESE 1.6 mph2.6 kmh 30.47 in1031.8 mb 0.00 in0.0 mm 0.00 in0.0 mm 0.00 in0.0 mm
12:54 PM 26.6°F-3.0°C 18.1°F-7.7°C 70% 2.0 mph NNE3.2 kmh NNE 2.7 mph4.3 kmh 30.47 in1031.8 mb 0.00 in0.0 mm 0.00 in0.0 mm 0.00 in0.0 mm
12:59 PM 26.6°F-3.0°C 18.1°F-7.7°C 70% 1.6 mph NE2.6 kmh NE 2.2 mph3.5 kmh 30.47 in1031.8 mb 0.00 in0.0 mm 0.00 in0.0 mm 0.00 in0.0 mm
01:04 PM 26.6°F-3.0°C 18.1°F-7.7°C 70% 1.1 mph SE1.8 kmh SE 2.2 mph3.5 kmh 30.46 in1031.5 mb 0.00 in0.0 mm 0.00 in0.0 mm 0.00 in0.0 mm
01:09 PM 27.0°F-2.8°C 18.5°F-7.5°C 70% 0.7 mph E1.1 kmh E 1.6 mph2.6 kmh 30.46 in1031.5 mb 0.00 in0.0 mm 0.00 in0.0 mm 0.00 in0.0 mm
01:14 PM 27.0°F-2.8°C 18.5°F-7.5°C 70% 1.8 mph N2.9 kmh N 2.7 mph4.3 kmh 30.46 in1031.5 mb 0.00 in0.0 mm 0.00 in0.0 mm 0.00 in0.0 mm
01:19 PM 27.0°F-2.8°C 18.5°F-7.5°C 70% 1.1 mph NE1.8 kmh NE 2.0 mph3.2 kmh 30.45 in1031.2 mb 0.00 in0.0 mm 0.00 in0.0 mm 0.00 in0.0 mm
01:24 PM 27.0°F-2.8°C 18.1°F-7.7°C 69% 0.9 mph NNE1.4 kmh NNE 2.0 mph3.2 kmh 30.45 in1031.2 mb 0.00 in0.0 mm 0.00 in0.0 mm 0.00 in0.0 mm
01:29 PM 27.1°F-2.7°C 18.7°F-7.4°C 70% 1.3 mph NE2.1 kmh NE 2.2 mph3.5 kmh 30.44 in1030.8 mb 0.00 in0.0 mm 0.00 in0.0 mm 0.00 in0.0 mm
01:34 PM 27.0°F-2.8°C 18.5°F-7.5°C 70% 1.8 mph NE2.9 kmh NE 2.7 mph4.3 kmh 30.44 in1030.8 mb 0.00 in0.0 mm 0.00 in0.0 mm 0.00 in0.0 mm
01:39 PM 27.3°F-2.6°C 18.9°F-7.3°C 70% 1.8 mph N2.9 kmh N 2.0 mph3.2 kmh 30.44 in1030.8 mb 0.00 in0.0 mm 0.00 in0.0 mm 0.00 in0.0 mm
01:44 PM 27.3°F-2.6°C 18.5°F-7.5°C 69% 0.9 mph ENE1.4 kmh ENE 1.8 mph2.9 kmh 30.43 in1030.5 mb 0.00 in0.0 mm 0.00 in0.0 mm 0.00 in0.0 mm
01:49 PM 27.7°F-2.4°C 18.9°F-7.3°C 69% 1.1 mph ENE1.8 kmh ENE 2.0 mph3.2 kmh 30.43 in1030.5 mb 0.00 in0.0 mm 0.00 in0.0 mm 0.00 in0.0 mm
01:54 PM 27.7°F-2.4°C 18.5°F-7.5°C 68% 0.7 mph NNE1.1 kmh NNE 1.1 mph1.8 kmh 30.43 in1030.5 mb 0.00 in0.0 mm 0.00 in0.0 mm 0.00 in0.0 mm
01:59 PM 27.5°F-2.5°C 18.3°F-7.6°C 68% 0.9 mph ENE1.4 kmh ENE 1.8 mph2.9 kmh 30.43 in1030.5 mb 0.00 in0.0 mm 0.00 in0.0 mm 0.00 in0.0 mm
02:04 PM 27.7°F-2.4°C 18.5°F-7.5°C 68% 1.8 mph NE2.9 kmh NE 2.2 mph3.5 kmh 30.43 in1030.5 mb 0.00 in0.0 mm 0.00 in0.0 mm 0.00 in0.0 mm
02:09 PM 27.7°F-2.4°C 18.5°F-7.5°C 68% 1.3 mph NNE2.1 kmh NNE 2.0 mph3.2 kmh 30.43 in1030.5 mb 0.00 in0.0 mm 0.00 in0.0 mm 0.00 in0.0 mm
02:14 PM 27.9°F-2.3°C 18.7°F-7.4°C 68% 1.1 mph NE1.8 kmh NE 1.8 mph2.9 kmh 30.43 in1030.5 mb 0.00 in0.0 mm 0.00 in0.0 mm 0.00 in0.0 mm
02:19 PM 27.9°F-2.3°C 18.7°F-7.4°C 68% 0.4 mph ESE0.6 kmh ESE 2.0 mph3.2 kmh 30.43 in1030.5 mb 0.00 in0.0 mm 0.00 in0.0 mm 0.00 in0.0 mm
02:24 PM 27.9°F-2.3°C 18.7°F-7.4°C 68% 1.8 mph ESE2.9 kmh ESE 3.8 mph6.1 kmh 30.43 in1030.5 mb 0.00 in0.0 mm 0.00 in0.0 mm 0.00 in0.0 mm
02:29 PM 28.4°F-2.0°C 19.2°F-7.1°C 68% 2.5 mph NE4.0 kmh NE 4.0 mph6.4 kmh 30.43 in1030.5 mb 0.00 in0.0 mm 0.00 in0.0 mm 0.00 in0.0 mm
02:34 PM 28.8°F-1.8°C 18.9°F-7.3°C 66% 4.0 mph ESE6.4 kmh ESE 5.4 mph8.7 kmh 30.43 in1030.5 mb 0.00 in0.0 mm 0.00 in0.0 mm 0.00 in0.0 mm
02:39 PM 28.9°F-1.7°C 19.0°F-7.2°C 66% 2.5 mph N4.0 kmh N 2.9 mph4.7 kmh 30.43 in1030.5 mb 0.00 in0.0 mm 0.00 in0.0 mm 0.00 in0.0 mm
02:44 PM 28.8°F-1.8°C 18.5°F-7.5°C 65% 1.8 mph NNE2.9 kmh NNE 2.7 mph4.3 kmh 30.43 in1030.5 mb 0.00 in0.0 mm 0.00 in0.0 mm 0.00 in0.0 mm
02:49 PM 28.6°F-1.9°C 18.3°F-7.6°C 65% 1.1 mph NNW1.8 kmh NNW 3.1 mph5.0 kmh 30.44 in1030.8 mb 0.00 in0.0 mm 0.00 in0.0 mm 0.00 in0.0 mm
02:54 PM 28.2°F-2.1°C 18.3°F-7.6°C 66% 1.8 mph NE2.9 kmh NE 2.2 mph3.5 kmh 30.44 in1030.8 mb 0.00 in0.0 mm 0.00 in0.0 mm 0.00 in0.0 mm
02:59 PM 28.4°F-2.0°C 18.1°F-7.7°C 65% 2.0 mph NE3.2 kmh NE 2.7 mph4.3 kmh 30.44 in1030.8 mb 0.00 in0.0 mm 0.00 in0.0 mm 0.00 in0.0 mm
03:04 PM 28.4°F-2.0°C 18.5°F-7.5°C 66% 1.3 mph NE2.1 kmh NE 2.0 mph3.2 kmh 30.44 in1030.8 mb 0.00 in0.0 mm 0.00 in0.0 mm 0.00 in0.0 mm
03:08 PM 28.0°F-2.2°C 17.8°F-7.9°C 65% 2.0 mph NNE3.2 kmh NNE 2.7 mph4.3 kmh 30.44 in1030.8 mb 0.00 in0.0 mm 0.00 in0.0 mm 0.00 in0.0 mm
03:13 PM 28.0°F-2.2°C 18.1°F-7.7°C 66% 0.9 mph NNW1.4 kmh NNW 1.8 mph2.9 kmh 30.44 in1030.8 mb 0.00 in0.0 mm 0.00 in0.0 mm 0.00 in0.0 mm
03:18 PM 28.0°F-2.2°C 18.1°F-7.7°C 66% 1.6 mph NE2.6 kmh NE 2.5 mph4.0 kmh 30.44 in1030.8 mb 0.00 in0.0 mm 0.00 in0.0 mm 0.00 in0.0 mm
03:23 PM 28.0°F-2.2°C 18.1°F-7.7°C 66% 1.1 mph NE1.8 kmh NE 1.8 mph2.9 kmh 30.44 in1030.8 mb 0.00 in0.0 mm 0.00 in0.0 mm 0.00 in0.0 mm
03:28 PM 28.0°F-2.2°C 18.1°F-7.7°C 66% 1.3 mph N2.1 kmh N 2.5 mph4.0 kmh 30.43 in1030.5 mb 0.00 in0.0 mm 0.00 in0.0 mm 0.00 in0.0 mm
03:33 PM 28.2°F-2.1°C 18.3°F-7.6°C 66% 1.6 mph NNE2.6 kmh NNE 2.7 mph4.3 kmh 30.43 in1030.5 mb 0.00 in0.0 mm 0.00 in0.0 mm 0.00 in0.0 mm
03:38 PM 28.4°F-2.0°C 18.5°F-7.5°C 66% 1.6 mph NNE2.6 kmh NNE 2.2 mph3.5 kmh 30.43 in1030.5 mb 0.00 in0.0 mm 0.00 in0.0 mm 0.00 in0.0 mm
03:43 PM 28.4°F-2.0°C 18.5°F-7.5°C 66% 0.4 mph WSW0.6 kmh WSW 1.6 mph2.6 kmh 30.43 in1030.5 mb 0.00 in0.0 mm 0.00 in0.0 mm 0.00 in0.0 mm
03:48 PM 28.6°F-1.9°C 18.7°F-7.4°C 66% 0.7 mph N1.1 kmh N 1.6 mph2.6 kmh 30.43 in1030.5 mb 0.00 in0.0 mm 0.00 in0.0 mm 0.00 in0.0 mm
03:53 PM 28.6°F-1.9°C 18.7°F-7.4°C 66% 0.4 mph ESE0.6 kmh ESE 1.8 mph2.9 kmh 30.43 in1030.5 mb 0.00 in0.0 mm 0.00 in0.0 mm 0.00 in0.0 mm
03:58 PM 28.8°F-1.8°C 18.9°F-7.3°C 66% 2.2 mph N3.5 kmh N 2.9 mph4.7 kmh 30.43 in1030.5 mb 0.00 in0.0 mm 0.00 in0.0 mm 0.00 in0.0 mm
04:03 PM 28.6°F-1.9°C 18.7°F-7.4°C 66% 1.8 mph N2.9 kmh N 2.5 mph4.0 kmh 30.43 in1030.5 mb 0.00 in0.0 mm 0.00 in0.0 mm 0.00 in0.0 mm
04:08 PM 28.2°F-2.1°C 18.3°F-7.6°C 66% 1.6 mph N2.6 kmh N 2.2 mph3.5 kmh 30.43 in1030.5 mb 0.00 in0.0 mm 0.00 in0.0 mm 0.00 in0.0 mm
04:13 PM 28.2°F-2.1°C 18.3°F-7.6°C 66% 1.1 mph N1.8 kmh N 1.8 mph2.9 kmh 30.43 in1030.5 mb 0.00 in0.0 mm 0.00 in0.0 mm 0.00 in0.0 mm
04:18 PM 28.0°F-2.2°C 18.9°F-7.3°C 68% 2.0 mph NE3.2 kmh NE 2.5 mph4.0 kmh 30.43 in1030.5 mb 0.00 in0.0 mm 0.00 in0.0 mm 0.00 in0.0 mm
04:23 PM 27.7°F-2.4°C 17.8°F-7.9°C 66% 1.3 mph NE2.1 kmh NE 1.8 mph2.9 kmh 30.43 in1030.5 mb 0.00 in0.0 mm 0.00 in0.0 mm 0.00 in0.0 mm
04:28 PM 27.9°F-2.3°C 18.0°F-7.8°C 66% 2.5 mph NE4.0 kmh NE 3.1 mph5.0 kmh 30.43 in1030.5 mb 0.00 in0.0 mm 0.00 in0.0 mm 0.00 in0.0 mm
04:33 PM 28.0°F-2.2°C 18.1°F-7.7°C 66% 1.3 mph ENE2.1 kmh ENE 2.0 mph3.2 kmh 30.42 in1030.1 mb 0.00 in0.0 mm 0.00 in0.0 mm 0.00 in0.0 mm
04:38 PM 28.0°F-2.2°C 18.1°F-7.7°C 66% 2.7 mph SE4.3 kmh SE 3.8 mph6.1 kmh 30.43 in1030.5 mb 0.00 in0.0 mm 0.00 in0.0 mm 0.00 in0.0 mm
04:43 PM 27.9°F-2.3°C 18.0°F-7.8°C 66% 1.1 mph E1.8 kmh E 1.8 mph2.9 kmh 30.43 in1030.5 mb 0.00 in0.0 mm 0.00 in0.0 mm 0.00 in0.0 mm
04:48 PM 27.9°F-2.3°C 18.7°F-7.4°C 68% 2.2 mph SE3.5 kmh SE 3.1 mph5.0 kmh 30.43 in1030.5 mb 0.00 in0.0 mm 0.00 in0.0 mm 0.00 in0.0 mm
04:53 PM 27.9°F-2.3°C 18.0°F-7.8°C 66% 2.0 mph ESE3.2 kmh ESE 2.5 mph4.0 kmh 30.43 in1030.5 mb 0.00 in0.0 mm 0.00 in0.0 mm 0.00 in0.0 mm
04:58 PM 27.9°F-2.3°C 18.0°F-7.8°C 66% 1.3 mph E2.1 kmh E 2.2 mph3.5 kmh 30.43 in1030.5 mb 0.00 in0.0 mm 0.00 in0.0 mm 0.00 in0.0 mm
05:03 PM 27.7°F-2.4°C 17.8°F-7.9°C 66% 1.3 mph E2.1 kmh E 2.0 mph3.2 kmh 30.42 in1030.1 mb 0.00 in0.0 mm 0.00 in0.0 mm 0.00 in0.0 mm
05:08 PM 27.7°F-2.4°C 18.5°F-7.5°C 68% 0.4 mph E0.6 kmh E 1.6 mph2.6 kmh 30.42 in1030.1 mb 0.00 in0.0 mm 0.00 in0.0 mm 0.00 in0.0 mm
05:13 PM 27.7°F-2.4°C 17.8°F-7.9°C 66% 1.8 mph E2.9 kmh E 2.7 mph4.3 kmh 30.42 in1030.1 mb 0.00 in0.0 mm 0.00 in0.0 mm 0.00 in0.0 mm
05:18 PM 27.7°F-2.4°C 17.8°F-7.9°C 66% 2.0 mph SE3.2 kmh SE 2.7 mph4.3 kmh 30.42 in1030.1 mb 0.00 in0.0 mm 0.00 in0.0 mm 0.00 in0.0 mm
05:23 PM 27.7°F-2.4°C 17.8°F-7.9°C 66% Calm Calm 1.3 mph2.1 kmh 30.42 in1030.1 mb 0.00 in0.0 mm 0.00 in0.0 mm 0.00 in0.0 mm
05:28 PM 27.5°F-2.5°C 18.3°F-7.6°C 68% 0.2 mph SE0.3 kmh SE 1.8 mph2.9 kmh 30.42 in1030.1 mb 0.00 in0.0 mm 0.00 in0.0 mm 0.00 in0.0 mm
05:33 PM 27.7°F-2.4°C 18.9°F-7.3°C 69% 0.2 mph S0.3 kmh S 0.9 mph1.4 kmh 30.42 in1030.1 mb 0.00 in0.0 mm 0.00 in0.0 mm 0.00 in0.0 mm
05:39 PM 27.5°F-2.5°C 18.3°F-7.6°C 68% 0.9 mph E1.4 kmh E 1.1 mph1.8 kmh 30.43 in1030.5 mb 0.00 in0.0 mm 0.00 in0.0 mm 0.00 in0.0 mm
05:44 PM 27.5°F-2.5°C 18.3°F-7.6°C 68% 1.1 mph SE1.8 kmh SE 2.0 mph3.2 kmh 30.43 in1030.5 mb 0.00 in0.0 mm 0.00 in0.0 mm 0.00 in0.0 mm
05:48 PM 27.5°F-2.5°C 18.7°F-7.4°C 69% 1.1 mph SE1.8 kmh SE 1.3 mph2.1 kmh 30.43 in1030.5 mb 0.00 in0.0 mm 0.00 in0.0 mm 0.00 in0.0 mm
05:53 PM 27.3°F-2.6°C 18.5°F-7.5°C 69% Calm Calm -- 30.43 in1030.5 mb 0.00 in0.0 mm 0.00 in0.0 mm 0.00 in0.0 mm
05:58 PM 27.3°F-2.6°C 18.9°F-7.3°C 70% Calm Calm -- 30.43 in1030.5 mb 0.00 in0.0 mm 0.00 in0.0 mm 0.00 in0.0 mm
06:03 PM 27.1°F-2.7°C 18.7°F-7.4°C 70% Calm Calm -- 30.43 in1030.5 mb 0.00 in0.0 mm 0.00 in0.0 mm 0.00 in0.0 mm
06:13 PM 27.0°F-2.8°C 18.1°F-7.7°C 69% 1.6 mph ESE2.6 kmh ESE 1.8 mph2.9 kmh 30.43 in1030.5 mb 0.00 in0.0 mm 0.00 in0.0 mm 0.00 in0.0 mm
06:18 PM 27.0°F-2.8°C 18.5°F-7.5°C 70% 1.3 mph E2.1 kmh E 1.6 mph2.6 kmh 30.43 in1030.5 mb 0.00 in0.0 mm 0.00 in0.0 mm 0.00 in0.0 mm
06:23 PM 26.8°F-2.9°C 18.7°F-7.4°C 71% 1.3 mph E2.1 kmh E 2.2 mph3.5 kmh 30.43 in1030.5 mb 0.00 in0.0 mm 0.00 in0.0 mm 0.00 in0.0 mm
06:28 PM 26.8°F-2.9°C 18.3°F-7.6°C 70% 1.3 mph E2.1 kmh E 2.2 mph3.5 kmh 30.43 in1030.5 mb 0.00 in0.0 mm 0.00 in0.0 mm 0.00 in0.0 mm
06:33 PM 26.6°F-3.0°C 18.1°F-7.7°C 70% 1.6 mph SE2.6 kmh SE 1.8 mph2.9 kmh 30.43 in1030.5 mb 0.00 in0.0 mm 0.00 in0.0 mm 0.00 in0.0 mm
06:38 PM 26.6°F-3.0°C 18.5°F-7.5°C 71% 0.9 mph SE1.4 kmh SE 1.1 mph1.8 kmh 30.43 in1030.5 mb 0.00 in0.0 mm 0.00 in0.0 mm 0.00 in0.0 mm
06:43 PM 26.2°F-3.2°C 18.5°F-7.5°C 72% 1.3 mph ESE2.1 kmh ESE 1.3 mph2.1 kmh 30.43 in1030.5 mb 0.00 in0.0 mm 0.00 in0.0 mm 0.00 in0.0 mm
06:48 PM 26.2°F-3.2°C 18.5°F-7.5°C 72% Calm Calm 1.1 mph1.8 kmh 30.43 in1030.5 mb 0.00 in0.0 mm 0.00 in0.0 mm 0.00 in0.0 mm
06:53 PM 25.9°F-3.4°C 17.8°F-7.9°C 71% Calm Calm -- 30.44 in1030.8 mb 0.00 in0.0 mm 0.00 in0.0 mm 0.00 in0.0 mm
07:03 PM 25.2°F-3.8°C 17.1°F-8.3°C 71% Calm Calm -- 30.44 in1030.8 mb 0.00 in0.0 mm 0.00 in0.0 mm 0.00 in0.0 mm
07:08 PM 25.2°F-3.8°C 17.4°F-8.1°C 72% 0.2 mph NE0.3 kmh NE 0.9 mph1.4 kmh 30.44 in1030.8 mb 0.00 in0.0 mm 0.00 in0.0 mm 0.00 in0.0 mm
07:13 PM 24.8°F-4.0°C 17.1°F-8.3°C 72% Calm Calm 0.7 mph1.1 kmh 30.44 in1030.8 mb 0.00 in0.0 mm 0.00 in0.0 mm 0.00 in0.0 mm
07:18 PM 24.6°F-4.1°C 16.9°F-8.4°C 72% 0.9 mph E1.4 kmh E 1.1 mph1.8 kmh 30.44 in1030.8 mb 0.00 in0.0 mm 0.00 in0.0 mm 0.00 in0.0 mm
07:23 PM 24.3°F-4.3°C 17.2°F-8.2°C 74% 1.1 mph ENE1.8 kmh ENE 1.1 mph1.8 kmh 30.44 in1030.8 mb 0.00 in0.0 mm 0.00 in0.0 mm 0.00 in0.0 mm
07:28 PM 24.4°F-4.2°C 17.4°F-8.1°C 74% 1.1 mph E1.8 kmh E 1.8 mph2.9 kmh 30.44 in1030.8 mb 0.00 in0.0 mm 0.00 in0.0 mm 0.00 in0.0 mm
07:33 PM 24.6°F-4.1°C 17.6°F-8.0°C 74% 1.1 mph NE1.8 kmh NE 1.6 mph2.6 kmh 30.44 in1030.8 mb 0.00 in0.0 mm 0.00 in0.0 mm 0.00 in0.0 mm
07:38 PM 24.4°F-4.2°C 17.4°F-8.1°C 74% 0.4 mph ENE0.6 kmh ENE 1.1 mph1.8 kmh 30.44 in1030.8 mb 0.00 in0.0 mm 0.00 in0.0 mm 0.00 in0.0 mm
07:43 PM 24.6°F-4.1°C 17.6°F-8.0°C 74% 0.2 mph ESE0.3 kmh ESE 1.6 mph2.6 kmh 30.44 in1030.8 mb 0.00 in0.0 mm 0.00 in0.0 mm 0.00 in0.0 mm
07:48 PM 24.6°F-4.1°C 17.8°F-7.9°C 75% 1.1 mph SE1.8 kmh SE 1.3 mph2.1 kmh 30.44 in1030.8 mb 0.00 in0.0 mm 0.00 in0.0 mm 0.00 in0.0 mm
07:58 PM 24.4°F-4.2°C 18.0°F-7.8°C 76% 1.6 mph ESE2.6 kmh ESE 1.6 mph2.6 kmh 30.46 in1031.5 mb 0.00 in0.0 mm 0.00 in0.0 mm 0.00 in0.0 mm
08:03 PM 24.8°F-4.0°C 18.3°F-7.6°C 76% 0.9 mph SE1.4 kmh SE 1.1 mph1.8 kmh 30.46 in1031.5 mb 0.00 in0.0 mm 0.00 in0.0 mm 0.00 in0.0 mm
08:08 PM 25.0°F-3.9°C 19.4°F-7.0°C 79% 0.4 mph SE0.6 kmh SE 1.1 mph1.8 kmh 30.46 in1031.5 mb 0.00 in0.0 mm 0.00 in0.0 mm 0.00 in0.0 mm
08:13 PM 25.2°F-3.8°C 19.0°F-7.2°C 77% 0.2 mph ESE0.3 kmh ESE 1.6 mph2.6 kmh 30.47 in1031.8 mb 0.00 in0.0 mm 0.00 in0.0 mm 0.00 in0.0 mm
08:18 PM 25.0°F-3.9°C 18.9°F-7.3°C 77% 0.9 mph SE1.4 kmh SE 1.3 mph2.1 kmh 30.46 in1031.5 mb 0.00 in0.0 mm 0.00 in0.0 mm 0.00 in0.0 mm
08:23 PM 25.2°F-3.8°C 19.0°F-7.2°C 77% 1.1 mph SE1.8 kmh SE 1.1 mph1.8 kmh 30.47 in1031.8 mb 0.00 in0.0 mm 0.00 in0.0 mm 0.00 in0.0 mm
08:28 PM 25.2°F-3.8°C 19.0°F-7.2°C 77% Calm Calm 1.1 mph1.8 kmh 30.47 in1031.8 mb 0.00 in0.0 mm 0.00 in0.0 mm 0.00 in0.0 mm
08:33 PM 25.2°F-3.8°C 19.0°F-7.2°C 77% Calm Calm -- 30.47 in1031.8 mb 0.00 in0.0 mm 0.00 in0.0 mm 0.00 in0.0 mm
08:38 PM 25.5°F-3.6°C 19.4°F-7.0°C 77% 0.7 mph SE1.1 kmh SE 0.9 mph1.4 kmh 30.47 in1031.8 mb 0.00 in0.0 mm 0.00 in0.0 mm 0.00 in0.0 mm
08:43 PM 25.5°F-3.6°C 19.4°F-7.0°C 77% 0.7 mph SSE1.1 kmh SSE 0.9 mph1.4 kmh 30.47 in1031.8 mb 0.00 in0.0 mm 0.00 in0.0 mm 0.00 in0.0 mm
08:48 PM 25.7°F-3.5°C 19.4°F-7.0°C 77% 1.6 mph ESE2.6 kmh ESE 1.8 mph2.9 kmh 30.47 in1031.8 mb 0.00 in0.0 mm 0.00 in0.0 mm 0.00 in0.0 mm
08:53 PM 25.7°F-3.5°C 19.4°F-7.0°C 77% 0.4 mph SE0.6 kmh SE 1.1 mph1.8 kmh 30.46 in1031.5 mb 0.00 in0.0 mm 0.00 in0.0 mm 0.00 in0.0 mm
08:58 PM 25.7°F-3.5°C 19.2°F-7.1°C 76% 2.0 mph E3.2 kmh E 2.5 mph4.0 kmh 30.46 in1031.5 mb 0.00 in0.0 mm 0.00 in0.0 mm 0.00 in0.0 mm
09:03 PM 26.1°F-3.3°C 19.6°F-6.9°C 76% 0.9 mph SE1.4 kmh SE 1.6 mph2.6 kmh 30.46 in1031.5 mb 0.00 in0.0 mm 0.00 in0.0 mm 0.00 in0.0 mm
09:08 PM 26.1°F-3.3°C 19.6°F-6.9°C 76% 1.3 mph SE2.1 kmh SE 1.6 mph2.6 kmh 30.46 in1031.5 mb 0.00 in0.0 mm 0.00 in0.0 mm 0.00 in0.0 mm
09:13 PM 26.1°F-3.3°C 19.6°F-6.9°C 76% 2.0 mph SE3.2 kmh SE 2.0 mph3.2 kmh 30.46 in1031.5 mb 0.00 in0.0 mm 0.00 in0.0 mm 0.00 in0.0 mm
09:18 PM 26.1°F-3.3°C 19.6°F-6.9°C 76% 2.0 mph ESE3.2 kmh ESE 2.2 mph3.5 kmh 30.46 in1031.5 mb 0.00 in0.0 mm 0.00 in0.0 mm 0.00 in0.0 mm
09:23 PM 26.2°F-3.2°C 19.4°F-7.0°C 75% 1.6 mph ESE2.6 kmh ESE 2.0 mph3.2 kmh 30.45 in1031.2 mb 0.00 in0.0 mm 0.00 in0.0 mm 0.00 in0.0 mm
09:28 PM 26.2°F-3.2°C 19.4°F-7.0°C 75% 1.8 mph ESE2.9 kmh ESE 2.0 mph3.2 kmh 30.45 in1031.2 mb 0.00 in0.0 mm 0.00 in0.0 mm 0.00 in0.0 mm
09:33 PM 26.2°F-3.2°C 19.8°F-6.8°C 76% 1.3 mph ESE2.1 kmh ESE 1.8 mph2.9 kmh 30.45 in1031.2 mb 0.00 in0.0 mm 0.00 in0.0 mm 0.00 in0.0 mm
09:38 PM 26.2°F-3.2°C 19.8°F-6.8°C 76% 1.1 mph E1.8 kmh E 1.3 mph2.1 kmh 30.46 in1031.5 mb 0.00 in0.0 mm 0.00 in0.0 mm 0.00 in0.0 mm
09:43 PM 26.2°F-3.2°C 19.8°F-6.8°C 76% 1.3 mph ESE2.1 kmh ESE 1.6 mph2.6 kmh 30.45 in1031.2 mb 0.00 in0.0 mm 0.00 in0.0 mm 0.00 in0.0 mm
09:48 PM 26.2°F-3.2°C 19.9°F-6.7°C 77% 1.6 mph SE2.6 kmh SE 1.8 mph2.9 kmh 30.45 in1031.2 mb 0.00 in0.0 mm 0.00 in0.0 mm 0.00 in0.0 mm
09:53 PM 26.2°F-3.2°C 19.9°F-6.7°C 77% 1.6 mph ESE2.6 kmh ESE 1.8 mph2.9 kmh 30.45 in1031.2 mb 0.00 in0.0 mm 0.00 in0.0 mm 0.00 in0.0 mm
09:58 PM 26.2°F-3.2°C 19.9°F-6.7°C 77% 1.3 mph ESE2.1 kmh ESE 1.6 mph2.6 kmh 30.46 in1031.5 mb 0.00 in0.0 mm 0.00 in0.0 mm 0.00 in0.0 mm
10:03 PM 26.2°F-3.2°C 19.8°F-6.8°C 76% 1.8 mph SE2.9 kmh SE 1.8 mph2.9 kmh 30.46 in1031.5 mb 0.00 in0.0 mm 0.00 in0.0 mm 0.00 in0.0 mm
10:08 PM 26.1°F-3.3°C 19.8°F-6.8°C 77% 1.3 mph SE2.1 kmh SE 1.6 mph2.6 kmh 30.45 in1031.2 mb 0.00 in0.0 mm 0.00 in0.0 mm 0.00 in0.0 mm
10:13 PM 26.1°F-3.3°C 19.6°F-6.9°C 76% 1.3 mph SE2.1 kmh SE 1.8 mph2.9 kmh 30.45 in1031.2 mb 0.00 in0.0 mm 0.00 in0.0 mm 0.00 in0.0 mm
10:18 PM 25.9°F-3.4°C 19.6°F-6.9°C 77% 1.6 mph ESE2.6 kmh ESE 1.8 mph2.9 kmh 30.45 in1031.2 mb 0.00 in0.0 mm 0.00 in0.0 mm 0.00 in0.0 mm
10:23 PM 26.1°F-3.3°C 19.8°F-6.8°C 77% 1.6 mph ESE2.6 kmh ESE 1.8 mph2.9 kmh 30.45 in1031.2 mb 0.00 in0.0 mm 0.00 in0.0 mm 0.00 in0.0 mm
10:28 PM 26.1°F-3.3°C 19.8°F-6.8°C 77% 1.8 mph ESE2.9 kmh ESE 1.8 mph2.9 kmh 30.44 in1030.8 mb 0.00 in0.0 mm 0.00 in0.0 mm 0.00 in0.0 mm
10:33 PM 26.1°F-3.3°C 19.8°F-6.8°C 77% 1.3 mph SE2.1 kmh SE 1.6 mph2.6 kmh 30.44 in1030.8 mb 0.00 in0.0 mm 0.00 in0.0 mm 0.00 in0.0 mm
10:38 PM 26.1°F-3.3°C 20.5°F-6.4°C 79% 1.1 mph SE1.8 kmh SE 1.6 mph2.6 kmh 30.44 in1030.8 mb 0.00 in0.0 mm 0.00 in0.0 mm 0.00 in0.0 mm
10:43 PM 26.2°F-3.2°C 19.9°F-6.7°C 77% 1.1 mph SSE1.8 kmh SSE 1.6 mph2.6 kmh 30.44 in1030.8 mb 0.00 in0.0 mm 0.00 in0.0 mm 0.00 in0.0 mm
10:48 PM 25.9°F-3.4°C 19.6°F-6.9°C 77% 1.3 mph SE2.1 kmh SE 1.8 mph2.9 kmh 30.44 in1030.8 mb 0.00 in0.0 mm 0.00 in0.0 mm 0.00 in0.0 mm
10:53 PM 25.9°F-3.4°C 19.6°F-6.9°C 77% 1.3 mph SE2.1 kmh SE 2.0 mph3.2 kmh 30.44 in1030.8 mb 0.00 in0.0 mm 0.00 in0.0 mm 0.00 in0.0 mm
10:58 PM 26.1°F-3.3°C 19.8°F-6.8°C 77% 1.6 mph SE2.6 kmh SE 1.8 mph2.9 kmh 30.44 in1030.8 mb 0.00 in0.0 mm 0.00 in0.0 mm 0.00 in0.0 mm
11:03 PM 26.2°F-3.2°C 19.9°F-6.7°C 77% 1.6 mph ESE2.6 kmh ESE 1.8 mph2.9 kmh 30.44 in1030.8 mb 0.00 in0.0 mm 0.00 in0.0 mm 0.00 in0.0 mm
11:09 PM 26.2°F-3.2°C 19.8°F-6.8°C 76% 1.3 mph SE2.1 kmh SE 1.8 mph2.9 kmh 30.44 in1030.8 mb 0.00 in0.0 mm 0.00 in0.0 mm 0.00 in0.0 mm
11:14 PM 26.1°F-3.3°C 19.6°F-6.9°C 76% 1.1 mph SSE1.8 kmh SSE 1.6 mph2.6 kmh 30.44 in1030.8 mb 0.00 in0.0 mm 0.00 in0.0 mm 0.00 in0.0 mm
11:18 PM 25.9°F-3.4°C 19.4°F-7.0°C 76% 1.1 mph SE1.8 kmh SE 1.3 mph2.1 kmh 30.44 in1030.8 mb 0.00 in0.0 mm 0.00 in0.0 mm 0.00 in0.0 mm
11:23 PM 26.1°F-3.3°C 19.6°F-6.9°C 76% 1.6 mph SE2.6 kmh SE 1.8 mph2.9 kmh 30.45 in1031.2 mb 0.00 in0.0 mm 0.00 in0.0 mm 0.00 in0.0 mm
11:28 PM 25.9°F-3.4°C 19.4°F-7.0°C 76% 1.3 mph SE2.1 kmh SE 2.0 mph3.2 kmh 30.45 in1031.2 mb 0.00 in0.0 mm 0.00 in0.0 mm 0.00 in0.0 mm
11:33 PM 25.7°F-3.5°C 19.2°F-7.1°C 76% 1.3 mph SE2.1 kmh SE 2.0 mph3.2 kmh 30.45 in1031.2 mb 0.00 in0.0 mm 0.00 in0.0 mm 0.00 in0.0 mm
11:38 PM 25.7°F-3.5°C 19.2°F-7.1°C 76% 1.3 mph SE2.1 kmh SE 1.6 mph2.6 kmh 30.45 in1031.2 mb 0.00 in0.0 mm 0.00 in0.0 mm 0.00 in0.0 mm
11:43 PM 25.9°F-3.4°C 19.6°F-6.9°C 77% 1.1 mph ESE1.8 kmh ESE 1.1 mph1.8 kmh 30.46 in1031.5 mb 0.00 in0.0 mm 0.00 in0.0 mm 0.00 in0.0 mm
11:48 PM 25.9°F-3.4°C 19.6°F-6.9°C 77% 1.3 mph E2.1 kmh E 1.6 mph2.6 kmh 30.45 in1031.2 mb 0.00 in0.0 mm 0.00 in0.0 mm 0.00 in0.0 mm
11:53 PM 25.9°F-3.4°C 19.6°F-6.9°C 77% 1.8 mph ESE2.9 kmh ESE 2.2 mph3.5 kmh 30.45 in1031.2 mb 0.00 in0.0 mm 0.00 in0.0 mm 0.00 in0.0 mm
11:58 PM 25.9°F-3.4°C 19.4°F-7.0°C 76% 1.6 mph ESE2.6 kmh ESE 1.8 mph2.9 kmh 30.45 in1031.2 mb 0.00 in0.0 mm 0.00 in0.0 mm 0.00 in0.0 mm